Ana Sayfa
METAR-TAF:

METAR-TAF

Havaalanları :

Penn Yan Airport

Penn Yan, New York, Amerika Birleşik Devletleri

Enlem: 42-38-35N, Boylam: 077-02-58W, yükseklik: 275 m

Güncel hava durumu gözlemi

Rapor saat 14:53 UTC de 1 saat ve 13 dakika önce yapıldı.
Rüzgar batı/güneybatıdan 18 kt
Sıcaklık -4°C
Nem 54%
Basınç 1006 hPa
Görüş mesafesi: 16.1 km
4000 ft yükseklikte parçalı bulutlu
5000 ft yükseklikte çok bulutlu

METAR: KPEO 281453Z AUTO 24018KT 10SM SCT040 OVC050 M04/M12 A2972 RMK AO2 SLP077 T10441122 50004

Saat: 11:06 (16:06 UTC)


TAF: eksik

4.000'den fazla havaalanı için hava durumu gözlemleri ve tahminleri (METAR ve TAF raporları).

Kullanılabilir istasyonlar harita üzerinde sarı ve kırmızı noktalarla gösterilir.

İstasyonun adını görmek için fareyi noktanın üzerinde gezdirin.

Sonrasında hava gözlem ve tahminlerini görmek için tıklayın.

Haritayı değiştirmek için: yaklaştırmak için siyah artı işaretli yeşil düğmeye ve uzaklaştırmak için de eksi işaretli düğmeye hızla tıklayın; bitişik haritalar için yeşil okları kullanın.


METAR-TAF: